SLK weather

Adirondack Regional Airport
Saranac Lake, New York, United States

Public forecast

Using degrees Fahrenheit for public forecast. Weather courtesy of forecast.io.

Current aviation weather report (METAR) for Adirondack Regional Airport

Retrieved 2019/12/11 18:51 UTC (10 minutes ago):

KSLK 111851Z AUTO 21013G22KT 180V240 10SM OVC039 M04/M12 A2999 RMK AO2 SLP183 T10441122

Aviation forecast (TAF) for Adirondack Regional Airport

Retrieved 2019/12/11 18:39 UTC (22 minutes ago):

TAF KSLK 111737Z 1118/1218 22010KT P6SM SCT050 FM112100 21015KT 5SM -SHSN OVC035 TEMPO 1121/1124 27016G25KT 1SM -SHSN OVC015 FM120000 27016G30KT 4SM -SHSN BR BKN025 FM120400 27015G28KT P6SM VCSH BKN035 FM120800 25006KT P6SM FEW040